Time;durP1;ratioP1;P1;durP2;ratioP2;P2;SDS_P1;SDS_P2;PMS_P1;PMS_P2;Temp;Humidity;BMP_temperature;BMP_pressure;BME280_temperature;BME280_humidity;BME280_pressure;Samples;Min_cycle;Max_cycle;Signal;HPM_P1;HPM_P2
2021/10/31 00:00:15;;;;;;;75.33;35.27;;;;;;;;;;5006886;28;20117;-73
2021/10/31 00:02:40;;;;;;;75.97;36.83;;;;;;;;;;4990574;28;20030;-73
2021/10/31 00:05:07;;;;;;;70.17;34.63;;;;;;;;;;5006881;28;20085;-72
2021/10/31 00:07:33;;;;;;;73.33;35.63;;;;;;;;;;4991708;28;20084;-72
2021/10/31 00:09:58;;;;;;;71.47;35.83;;;;;;;;;;4990564;28;20424;-72
2021/10/31 00:12:24;;;;;;;74.37;34.57;;;;;;;;;;5006714;28;20030;-73
2021/10/31 00:14:49;;;;;;;76.83;36.50;;;;;;;;;;4991767;28;20491;-73
2021/10/31 00:17:15;;;;;;;69.43;36.17;;;;;;;;;;4990644;28;20125;-72
2021/10/31 00:19:40;;;;;;;72.13;35.57;;;;;;;;;;4990442;28;20022;-72
2021/10/31 00:22:06;;;;;;;73.47;37.27;;;;;;;;;;4991733;28;20034;-73
2021/10/31 00:24:31;;;;;;;79.60;35.67;;;;;;;;;;4990642;28;20034;-73
2021/10/31 00:26:57;;;;;;;71.23;36.83;;;;;;;;;;4990952;28;20114;-73
2021/10/31 00:29:23;;;;;;;71.00;35.30;;;;;;;;;;4991390;28;20475;-74
2021/10/31 00:31:49;;;;;;;73.23;35.57;;;;;;;;;;4991317;28;20029;-71
2021/10/31 00:34:14;;;;;;;75.33;34.33;;;;;;;;;;4991438;28;20050;-72
2021/10/31 00:36:40;;;;;;;79.80;37.27;;;;;;;;;;4990203;28;20037;-72
2021/10/31 00:39:06;;;;;;;80.47;37.23;;;;;;;;;;5006711;28;20040;-73
2021/10/31 00:41:32;;;;;;;69.07;36.00;;;;;;;;;;4990132;28;20500;-73
2021/10/31 00:43:58;;;;;;;71.37;35.60;;;;;;;;;;5006275;28;20030;-73
2021/10/31 00:46:24;;;;;;;72.87;34.97;;;;;;;;;;4991229;28;20038;-72
2021/10/31 00:48:49;;;;;;;69.23;35.67;;;;;;;;;;4991196;28;20038;-72
2021/10/31 00:51:16;;;;;;;69.80;34.90;;;;;;;;;;4991437;28;20022;-73
2021/10/31 00:53:43;;;;;;;74.53;35.03;;;;;;;;;;4991076;28;20037;-73
2021/10/31 00:56:10;;;;;;;73.77;36.27;;;;;;;;;;4989824;28;20540;-73
2021/10/31 00:58:36;;;;;;;74.23;36.50;;;;;;;;;;4991113;28;20065;-73
2021/10/31 01:01:03;;;;;;;71.70;34.07;;;;;;;;;;4989480;28;20042;-73
2021/10/31 01:03:28;;;;;;;77.27;35.77;;;;;;;;;;4990959;28;20026;-73
2021/10/31 01:06:06;;;;;;;79.17;37.20;;;;;;;;;;4990590;28;20058;-73
2021/10/31 01:08:55;;;;;;;76.50;37.50;;;;;;;;;;4989474;28;20029;-73
2021/10/31 01:11:20;;;;;;;76.13;38.53;;;;;;;;;;4990846;28;20130;-73
2021/10/31 01:13:49;;;;;;;68.03;36.47;;;;;;;;;;4990723;28;20105;-73
2021/10/31 01:16:45;;;;;;;73.70;36.63;;;;;;;;;;4990691;28;20501;-73
2021/10/31 01:19:35;;;;;;;73.43;35.40;;;;;;;;;;5006022;28;20470;-73
2021/10/31 01:22:29;;;;;;;80.57;38.17;;;;;;;;;;4990980;28;20045;-73
2021/10/31 01:25:03;;;;;;;73.10;35.90;;;;;;;;;;5008511;28;20065;-72
2021/10/31 01:27:35;;;;;;;69.63;35.70;;;;;;;;;;5009869;28;20129;-73
2021/10/31 01:30:25;;;;;;;84.93;38.92;;;;;;;;;;5008132;28;20030;-72
2021/10/31 01:33:17;;;;;;;81.17;37.57;;;;;;;;;;4989059;28;20472;-73
2021/10/31 01:36:10;;;;;;;73.20;35.97;;;;;;;;;;4990617;28;20079;-73
2021/10/31 01:38:42;;;;;;;72.50;36.33;;;;;;;;;;5007434;28;20026;-72
2021/10/31 01:41:36;;;;;;;67.93;33.38;;;;;;;;;;4994158;28;20030;-73
2021/10/31 01:44:26;;;;;;;76.73;35.30;;;;;;;;;;5009470;28;20065;-74
2021/10/31 01:47:05;;;;;;;73.70;35.70;;;;;;;;;;5009578;28;20022;-72
2021/10/31 01:49:46;;;;;;;73.40;36.27;;;;;;;;;;4993332;28;20383;-72
2021/10/31 01:52:22;;;;;;;71.13;35.03;;;;;;;;;;4994505;28;20466;-74
2021/10/31 01:54:57;;;;;;;73.90;36.13;;;;;;;;;;4994203;28;20046;-72
2021/10/31 01:57:24;;;;;;;77.10;36.27;;;;;;;;;;4992959;28;20026;-73
2021/10/31 02:00:00;;;;;;;69.13;34.97;;;;;;;;;;4992816;28;20084;-73
2021/10/31 02:02:29;;;;;;;69.97;35.50;;;;;;;;;;4994360;28;20617;-73
2021/10/31 02:04:55;;;;;;;75.13;37.60;;;;;;;;;;5008972;28;20026;-72
2021/10/31 02:07:21;;;;;;;80.03;36.70;;;;;;;;;;4994173;28;20670;-72
2021/10/31 02:09:49;;;;;;;82.63;36.77;;;;;;;;;;4993968;28;20042;-72
2021/10/31 02:12:18;;;;;;;74.63;35.40;;;;;;;;;;4993965;28;20517;-73
2021/10/31 02:14:45;;;;;;;72.57;37.10;;;;;;;;;;4994120;28;20037;-73
2021/10/31 02:17:11;;;;;;;71.00;35.97;;;;;;;;;;4994273;28;20105;-73
2021/10/31 02:19:42;;;;;;;72.60;36.70;;;;;;;;;;4992767;28;20438;-72
2021/10/31 02:22:32;;;;;;;77.07;35.93;;;;;;;;;;4993575;28;20605;-73
2021/10/31 02:25:00;;;;;;;72.10;35.67;;;;;;;;;;4992904;28;20706;-73
2021/10/31 02:27:33;;;;;;;76.40;35.07;;;;;;;;;;4993861;28;20117;-72
2021/10/31 02:30:00;;;;;;;72.87;36.03;;;;;;;;;;4993683;28;20076;-72
2021/10/31 02:32:29;;;;;;;66.13;35.87;;;;;;;;;;4993799;28;20112;-72
2021/10/31 02:34:55;;;;;;;74.50;35.73;;;;;;;;;;4992232;28;20050;-72
2021/10/31 02:37:21;;;;;;;81.33;37.37;;;;;;;;;;4992772;28;20030;-72
2021/10/31 02:39:47;;;;;;;77.90;36.00;;;;;;;;;;4992334;28;20057;-73
2021/10/31 02:42:13;;;;;;;77.93;35.77;;;;;;;;;;4992472;28;20128;-72
2021/10/31 02:44:39;;;;;;;71.63;35.30;;;;;;;;;;4993373;28;20556;-72
2021/10/31 02:47:07;;;;;;;76.23;35.20;;;;;;;;;;4992756;28;20037;-73
2021/10/31 02:49:33;;;;;;;74.77;36.10;;;;;;;;;;4990837;28;20046;-72
2021/10/31 02:52:17;;;;;;;72.23;36.53;;;;;;;;;;4993125;28;20022;-73
2021/10/31 02:55:01;;;;;;;76.17;35.60;;;;;;;;;;4992271;28;20022;-72
2021/10/31 02:57:55;;;;;;;71.17;36.00;;;;;;;;;;4992582;28;20485;-72
2021/10/31 03:00:21;;;;;;;73.87;35.77;;;;;;;;;;4990985;28;20114;-73
2021/10/31 03:02:48;;;;;;;73.97;37.57;;;;;;;;;;4990671;28;20041;-72
2021/10/31 03:05:14;;;;;;;76.73;39.10;;;;;;;;;;4991957;28;20026;-72
2021/10/31 03:07:40;;;;;;;75.13;37.23;;;;;;;;;;4991988;28;20026;-73
2021/10/31 03:10:06;;;;;;;73.97;37.10;;;;;;;;;;4991810;28;20084;-72
2021/10/31 03:12:32;;;;;;;69.57;34.57;;;;;;;;;;5006807;28;20065;-72
2021/10/31 03:14:58;;;;;;;77.50;38.17;;;;;;;;;;4991671;28;20061;-73
2021/10/31 03:17:23;;;;;;;82.80;38.27;;;;;;;;;;4991650;28;20030;-73
2021/10/31 03:19:49;;;;;;;75.87;36.77;;;;;;;;;;4991688;28;20022;-74
2021/10/31 03:22:15;;;;;;;73.23;35.17;;;;;;;;;;5006601;28;20375;-73
2021/10/31 03:24:40;;;;;;;77.70;37.60;;;;;;;;;;4991537;28;20058;-73
2021/10/31 03:27:06;;;;;;;78.07;36.83;;;;;;;;;;5006230;28;20045;-73
2021/10/31 03:29:33;;;;;;;78.43;38.13;;;;;;;;;;4991566;28;20532;-73
2021/10/31 03:31:59;;;;;;;81.10;40.07;;;;;;;;;;4991235;28;20049;-73
2021/10/31 03:34:24;;;;;;;79.33;36.67;;;;;;;;;;4942531;28;1445704;-73
2021/10/31 03:36:50;;;;;;;83.87;36.77;;;;;;;;;;5007070;28;20128;-74
2021/10/31 03:39:17;;;;;;;73.57;36.07;;;;;;;;;;4990928;28;20125;-73
2021/10/31 03:41:45;;;;;;;75.40;37.40;;;;;;;;;;5007302;28;20609;-73
2021/10/31 03:44:14;;;;;;;79.53;37.03;;;;;;;;;;4992120;28;20049;-73
2021/10/31 03:46:40;;;;;;;84.73;38.10;;;;;;;;;;4990971;28;20129;-73
2021/10/31 03:49:05;;;;;;;76.67;41.03;;;;;;;;;;4992252;28;20448;-73
2021/10/31 03:51:31;;;;;;;77.10;39.23;;;;;;;;;;4992063;28;20018;-73
2021/10/31 03:53:56;;;;;;;79.00;37.30;;;;;;;;;;4991997;28;20037;-72
2021/10/31 03:56:22;;;;;;;73.93;35.63;;;;;;;;;;4990493;28;20026;-72
2021/10/31 03:58:48;;;;;;;83.33;37.73;;;;;;;;;;4990358;28;20066;-73
2021/10/31 04:01:13;;;;;;;86.83;39.27;;;;;;;;;;5005817;28;20069;-73
2021/10/31 04:03:39;;;;;;;78.03;37.37;;;;;;;;;;4991681;28;20477;-73
2021/10/31 04:06:04;;;;;;;78.73;39.83;;;;;;;;;;4990538;28;20064;-74
2021/10/31 04:08:30;;;;;;;80.67;38.30;;;;;;;;;;4991772;28;20027;-72
2021/10/31 04:10:55;;;;;;;76.50;38.73;;;;;;;;;;4991624;28;20061;-73
2021/10/31 04:13:21;;;;;;;70.90;35.47;;;;;;;;;;4991819;28;20410;-73
2021/10/31 04:15:46;;;;;;;82.47;36.43;;;;;;;;;;5006599;28;20030;-73
2021/10/31 04:18:12;;;;;;;85.80;37.63;;;;;;;;;;4991272;28;20463;-73
2021/10/31 04:20:37;;;;;;;80.13;34.87;;;;;;;;;;5006676;28;20053;-73
2021/10/31 04:23:03;;;;;;;80.30;34.97;;;;;;;;;;5006701;28;20045;-73
2021/10/31 04:25:30;;;;;;;77.67;36.63;;;;;;;;;;4991500;28;20065;-73
2021/10/31 04:27:55;;;;;;;73.67;35.60;;;;;;;;;;4989985;28;20096;-73
2021/10/31 04:30:21;;;;;;;71.77;35.83;;;;;;;;;;4989946;28;20149;-73
2021/10/31 04:32:46;;;;;;;72.43;35.43;;;;;;;;;;5006710;28;20049;-73
2021/10/31 04:35:12;;;;;;;76.47;36.40;;;;;;;;;;5006129;28;20030;-73
2021/10/31 04:37:41;;;;;;;72.17;35.37;;;;;;;;;;4991457;28;20042;-72
2021/10/31 04:40:10;;;;;;;71.27;36.23;;;;;;;;;;5006327;28;20026;-73
2021/10/31 04:42:38;;;;;;;78.40;36.30;;;;;;;;;;4991512;28;20041;-73
2021/10/31 04:45:04;;;;;;;70.30;38.13;;;;;;;;;;4989657;28;20034;-73
2021/10/31 04:47:30;;;;;;;73.07;37.03;;;;;;;;;;5006262;28;20090;-72
2021/10/31 04:49:56;;;;;;;71.27;36.03;;;;;;;;;;4991027;28;20457;-72
2021/10/31 04:52:21;;;;;;;67.67;34.63;;;;;;;;;;5006373;28;20035;-72
2021/10/31 04:54:47;;;;;;;70.80;34.57;;;;;;;;;;4991832;28;20037;-72
2021/10/31 04:57:12;;;;;;;72.73;36.33;;;;;;;;;;4992872;28;20070;-72
2021/10/31 04:59:38;;;;;;;77.40;37.60;;;;;;;;;;4993040;28;20065;-72
2021/10/31 05:02:03;;;;;;;74.90;37.07;;;;;;;;;;4992154;28;20041;-72
2021/10/31 05:04:29;;;;;;;79.43;37.77;;;;;;;;;;4989591;28;20037;-73
2021/10/31 05:06:54;;;;;;;68.43;35.60;;;;;;;;;;4990783;28;20105;-72
2021/10/31 05:09:20;;;;;;;72.43;36.27;;;;;;;;;;4990644;28;20066;-73
2021/10/31 05:11:46;;;;;;;76.77;38.10;;;;;;;;;;5005936;28;20018;-73
2021/10/31 05:14:11;;;;;;;70.97;37.53;;;;;;;;;;4990387;28;20467;-73
2021/10/31 05:16:37;;;;;;;74.93;37.70;;;;;;;;;;5005758;28;20045;-73
2021/10/31 05:19:04;;;;;;;76.83;36.70;;;;;;;;;;4990494;28;20049;-74
2021/10/31 05:21:30;;;;;;;69.73;38.40;;;;;;;;;;4990658;28;20041;-72
2021/10/31 05:23:55;;;;;;;83.10;38.43;;;;;;;;;;4989244;28;20030;-73
2021/10/31 05:26:21;;;;;;;70.67;36.77;;;;;;;;;;4990463;28;20437;-73
2021/10/31 05:28:46;;;;;;;79.37;36.20;;;;;;;;;;5005562;28;20438;-73
2021/10/31 05:31:12;;;;;;;75.57;38.43;;;;;;;;;;4990398;28;20466;-73
2021/10/31 05:33:37;;;;;;;91.63;38.93;;;;;;;;;;5005338;28;20391;-73
2021/10/31 05:36:04;;;;;;;70.20;36.30;;;;;;;;;;4990343;28;20077;-73
2021/10/31 05:38:30;;;;;;;71.80;36.60;;;;;;;;;;4990497;28;20037;-74
2021/10/31 05:40:55;;;;;;;69.30;37.10;;;;;;;;;;5005562;28;20026;-72
2021/10/31 05:43:21;;;;;;;72.57;35.23;;;;;;;;;;4990310;28;20034;-73
2021/10/31 05:45:47;;;;;;;63.73;34.00;;;;;;;;;;5005355;28;20041;-73
2021/10/31 05:48:13;;;;;;;69.07;35.07;;;;;;;;;;4988846;28;20034;-73
2021/10/31 05:50:39;;;;;;;78.10;37.13;;;;;;;;;;5005482;28;20113;-73
2021/10/31 05:53:05;;;;;;;67.60;34.20;;;;;;;;;;4988868;28;20096;-73
2021/10/31 05:55:30;;;;;;;73.23;33.13;;;;;;;;;;4989330;28;20486;-73
2021/10/31 05:57:56;;;;;;;82.00;38.23;;;;;;;;;;4989009;28;20031;-73
2021/10/31 06:00:22;;;;;;;73.20;36.17;;;;;;;;;;4988909;28;20084;-73
2021/10/31 06:02:48;;;;;;;84.00;38.63;;;;;;;;;;4990458;28;20038;-73
2021/10/31 06:05:15;;;;;;;73.67;36.50;;;;;;;;;;4989353;28;20084;-73
2021/10/31 06:07:42;;;;;;;75.57;37.67;;;;;;;;;;4988840;28;20037;-73
2021/10/31 06:10:09;;;;;;;70.57;36.73;;;;;;;;;;4988814;28;20181;-73
2021/10/31 06:12:34;;;;;;;70.67;36.73;;;;;;;;;;4989061;28;20031;-73
2021/10/31 06:15:02;;;;;;;87.30;39.80;;;;;;;;;;4990089;28;20034;-74
2021/10/31 06:17:28;;;;;;;73.57;37.47;;;;;;;;;;5005514;28;20034;-74
2021/10/31 06:19:53;;;;;;;82.70;38.10;;;;;;;;;;4988854;28;20280;-73
2021/10/31 06:22:19;;;;;;;80.37;40.07;;;;;;;;;;4989981;28;20063;-73
2021/10/31 06:24:44;;;;;;;75.63;36.13;;;;;;;;;;4991971;28;20038;-73
2021/10/31 06:27:10;;;;;;;81.50;38.33;;;;;;;;;;4993729;28;20030;-73
2021/10/31 06:29:36;;;;;;;75.23;37.47;;;;;;;;;;5008845;28;20030;-72
2021/10/31 06:32:01;;;;;;;73.57;37.17;;;;;;;;;;5008502;28;20034;-73
2021/10/31 06:34:27;;;;;;;78.37;38.17;;;;;;;;;;4993734;28;20046;-74
2021/10/31 06:36:52;;;;;;;85.57;39.67;;;;;;;;;;4992383;28;20026;-73
2021/10/31 06:39:17;;;;;;;75.47;37.07;;;;;;;;;;5008561;28;20034;-74
2021/10/31 06:41:43;;;;;;;75.27;36.23;;;;;;;;;;4994064;28;20037;-73
2021/10/31 06:44:10;;;;;;;76.73;38.37;;;;;;;;;;4993383;28;20026;-74
2021/10/31 06:46:38;;;;;;;77.57;38.43;;;;;;;;;;4992230;28;20041;-74
2021/10/31 06:49:05;;;;;;;79.63;39.33;;;;;;;;;;4993411;28;20437;-73
2021/10/31 06:51:30;;;;;;;74.90;37.83;;;;;;;;;;4992353;28;20022;-73
2021/10/31 06:53:56;;;;;;;76.33;38.23;;;;;;;;;;4993115;28;20393;-75
2021/10/31 06:56:24;;;;;;;78.40;39.00;;;;;;;;;;4993055;28;20030;-73
2021/10/31 06:58:50;;;;;;;77.37;39.73;;;;;;;;;;5008406;28;20402;-74
2021/10/31 07:01:17;;;;;;;78.97;38.77;;;;;;;;;;5007708;28;20026;-73
2021/10/31 07:03:45;;;;;;;82.47;39.17;;;;;;;;;;5007740;28;20057;-74
2021/10/31 07:06:11;;;;;;;75.80;38.53;;;;;;;;;;5007866;28;20037;-73
2021/10/31 07:08:36;;;;;;;78.20;37.40;;;;;;;;;;5008195;28;20042;-74
2021/10/31 07:11:02;;;;;;;74.23;37.77;;;;;;;;;;5007902;28;20631;-73
2021/10/31 07:13:28;;;;;;;76.67;36.43;;;;;;;;;;4992655;28;20041;-74
2021/10/31 07:15:53;;;;;;;73.47;37.60;;;;;;;;;;4992838;28;20390;-73
2021/10/31 07:18:19;;;;;;;77.93;38.10;;;;;;;;;;5007797;28;20414;-73
2021/10/31 07:20:44;;;;;;;79.30;39.07;;;;;;;;;;4991087;28;20030;-72
2021/10/31 07:23:10;;;;;;;77.43;38.17;;;;;;;;;;4990976;28;20034;-74
2021/10/31 07:25:35;;;;;;;79.73;37.13;;;;;;;;;;4992734;28;20030;-74
2021/10/31 07:28:01;;;;;;;74.67;38.73;;;;;;;;;;5007579;28;20041;-73
2021/10/31 07:30:26;;;;;;;77.77;38.67;;;;;;;;;;4992524;28;20037;-72
2021/10/31 07:32:54;;;;;;;72.73;38.53;;;;;;;;;;4992466;28;20081;-72
2021/10/31 07:35:20;;;;;;;70.87;37.77;;;;;;;;;;4991427;28;20109;-73
2021/10/31 07:37:46;;;;;;;73.83;35.97;;;;;;;;;;5007362;28;20130;-73
2021/10/31 07:40:11;;;;;;;76.07;39.73;;;;;;;;;;4991998;28;20437;-73
2021/10/31 07:42:37;;;;;;;73.07;36.53;;;;;;;;;;4991956;28;20030;-72
2021/10/31 07:45:04;;;;;;;68.67;37.50;;;;;;;;;;4992618;28;20080;-73
2021/10/31 07:47:29;;;;;;;71.03;38.73;;;;;;;;;;4992336;28;20513;-72
2021/10/31 07:49:55;;;;;;;77.40;40.60;;;;;;;;;;5007441;28;20047;-73
2021/10/31 07:52:21;;;;;;;70.20;37.23;;;;;;;;;;4991984;28;20032;-73
2021/10/31 07:54:48;;;;;;;74.97;38.33;;;;;;;;;;4991994;28;20363;-73
2021/10/31 07:57:14;;;;;;;73.70;36.57;;;;;;;;;;4990724;28;20382;-73
2021/10/31 07:59:40;;;;;;;64.57;35.80;;;;;;;;;;4990579;28;20022;-73
2021/10/31 08:02:06;;;;;;;73.97;38.23;;;;;;;;;;4991919;28;20026;-73
2021/10/31 08:04:32;;;;;;;82.70;37.73;;;;;;;;;;5006868;28;20081;-73
2021/10/31 08:06:58;;;;;;;74.43;38.63;;;;;;;;;;4991052;28;20438;-73
2021/10/31 08:09:24;;;;;;;70.77;37.10;;;;;;;;;;4992247;28;20056;-73
2021/10/31 08:11:50;;;;;;;69.90;37.50;;;;;;;;;;4992379;28;20061;-73
2021/10/31 08:14:15;;;;;;;78.90;37.80;;;;;;;;;;5006312;28;20593;-73
2021/10/31 08:16:41;;;;;;;73.53;37.60;;;;;;;;;;4990343;28;20022;-74
2021/10/31 08:19:08;;;;;;;71.90;37.83;;;;;;;;;;4991318;28;20026;-73
2021/10/31 08:21:35;;;;;;;74.07;38.80;;;;;;;;;;4991890;28;20023;-73
2021/10/31 08:24:01;;;;;;;69.10;35.80;;;;;;;;;;4991307;28;20084;-74
2021/10/31 08:26:26;;;;;;;69.63;36.70;;;;;;;;;;4991273;28;20105;-72
2021/10/31 08:28:53;;;;;;;71.80;37.83;;;;;;;;;;5006407;28;20385;-73
2021/10/31 08:31:27;;;;;;;71.50;37.83;;;;;;;;;;4991449;28;20125;-73
2021/10/31 08:33:57;;;;;;;66.27;36.50;;;;;;;;;;5005962;28;20141;-74
2021/10/31 08:36:22;;;;;;;68.40;37.47;;;;;;;;;;4989858;28;20109;-73
2021/10/31 08:38:49;;;;;;;73.60;37.57;;;;;;;;;;4991217;28;20145;-74
2021/10/31 08:41:18;;;;;;;71.07;35.30;;;;;;;;;;4989546;28;20033;-72
2021/10/31 08:43:47;;;;;;;66.97;36.03;;;;;;;;;;4991220;28;20033;-74
2021/10/31 08:46:13;;;;;;;63.60;33.70;;;;;;;;;;5005634;28;20035;-73
2021/10/31 08:48:39;;;;;;;70.40;36.37;;;;;;;;;;5005855;28;20138;-73
2021/10/31 08:51:06;;;;;;;65.43;35.63;;;;;;;;;;5006117;28;20517;-74
2021/10/31 08:53:32;;;;;;;88.20;41.37;;;;;;;;;;5005992;28;20134;-73
2021/10/31 08:55:58;;;;;;;67.63;36.03;;;;;;;;;;5005839;28;20026;-73
2021/10/31 08:58:24;;;;;;;65.37;35.50;;;;;;;;;;4990870;28;20037;-75
2021/10/31 09:00:50;;;;;;;75.63;36.33;;;;;;;;;;4990661;28;20026;-74
2021/10/31 09:03:16;;;;;;;70.17;35.70;;;;;;;;;;5005385;28;20481;-73
2021/10/31 09:05:41;;;;;;;75.20;37.87;;;;;;;;;;4990404;28;20030;-73
2021/10/31 09:08:08;;;;;;;66.10;36.83;;;;;;;;;;4990614;28;20092;-73
2021/10/31 09:10:35;;;;;;;77.90;37.70;;;;;;;;;;4990653;28;20029;-73
2021/10/31 09:13:00;;;;;;;63.23;36.10;;;;;;;;;;4990479;28;20525;-73
2021/10/31 09:15:29;;;;;;;74.20;38.10;;;;;;;;;;4988968;28;20038;-72
2021/10/31 09:17:59;;;;;;;66.20;37.07;;;;;;;;;;5005502;28;20026;-74
2021/10/31 09:20:26;;;;;;;73.00;38.10;;;;;;;;;;4990267;28;20029;-74
2021/10/31 09:22:57;;;;;;;72.80;38.55;;;;;;;;;;4990432;28;20116;-74
2021/10/31 09:25:24;;;;;;;71.07;37.78;;;;;;;;;;4988774;28;20033;-75
2021/10/31 09:27:51;;;;;;;68.07;36.35;;;;;;;;;;4988815;28;20405;-76
2021/10/31 09:30:17;;;;;;;72.67;38.97;;;;;;;;;;4990643;28;20336;-74
2021/10/31 09:32:47;;;;;;;71.57;38.38;;;;;;;;;;4988412;28;20393;-74
2021/10/31 09:35:15;;;;;;;66.20;37.20;;;;;;;;;;5004975;28;20034;-74
2021/10/31 09:37:41;;;;;;;73.97;38.60;;;;;;;;;;4988981;28;20050;-75
2021/10/31 09:40:07;;;;;;;72.53;37.70;;;;;;;;;;5005144;28;20061;-75
2021/10/31 09:42:37;;;;;;;64.47;36.35;;;;;;;;;;4989904;28;20022;-73
2021/10/31 09:45:04;;;;;;;70.80;40.65;;;;;;;;;;4988822;28;20035;-75
2021/10/31 09:47:30;;;;;;;69.75;37.45;;;;;;;;;;5004622;28;20161;-74
2021/10/31 09:49:56;;;;;;;67.50;37.15;;;;;;;;;;5005120;28;20519;-74
2021/10/31 09:52:25;;;;;;;69.65;37.92;;;;;;;;;;4989633;28;20026;-74
2021/10/31 09:54:51;;;;;;;68.63;36.55;;;;;;;;;;4988382;28;20030;-74
2021/10/31 09:57:16;;;;;;;68.57;39.67;;;;;;;;;;4990086;28;20084;-74
2021/10/31 09:59:49;;;;;;;67.07;37.45;;;;;;;;;;4990431;28;20026;-75
2021/10/31 10:05:21;;;;;;;69.07;38.13;;;;;;;;;;4994323;28;20386;-73
2021/10/31 10:08:14;;;;;;;65.32;35.85;;;;;;;;;;4994412;28;20501;-74
2021/10/31 10:10:57;;;;;;;69.60;36.42;;;;;;;;;;4992094;28;20034;-73
2021/10/31 10:13:26;;;;;;;67.82;38.08;;;;;;;;;;4992064;28;20032;-74
2021/10/31 10:16:12;;;;;;;64.40;35.92;;;;;;;;;;5008329;28;20026;-76
2021/10/31 10:18:38;;;;;;;66.63;35.67;;;;;;;;;;4993175;28;20358;-73
2021/10/31 10:21:17;;;;;;;70.30;36.60;;;;;;;;;;5008519;28;20069;-75
2021/10/31 10:23:48;;;;;;;62.65;36.17;;;;;;;;;;5008155;28;20390;-74
2021/10/31 10:26:22;;;;;;;66.28;36.33;;;;;;;;;;4991887;28;20045;-73
2021/10/31 10:28:48;;;;;;;69.35;39.00;;;;;;;;;;4992042;28;20030;-75
2021/10/31 10:31:22;;;;;;;69.20;37.97;;;;;;;;;;5008159;28;20433;-74
2021/10/31 10:33:52;;;;;;;72.13;38.92;;;;;;;;;;4993187;28;20418;-74
2021/10/31 10:36:19;;;;;;;71.07;37.75;;;;;;;;;;5007661;28;20034;-74
2021/10/31 10:39:06;;;;;;;64.43;36.40;;;;;;;;;;4991908;28;20491;-74
2021/10/31 10:41:42;;;;;;;65.70;37.40;;;;;;;;;;4992930;28;20026;-74
2021/10/31 10:44:18;;;;;;;73.10;38.40;;;;;;;;;;4991674;28;20022;-75
2021/10/31 10:46:45;;;;;;;66.57;37.08;;;;;;;;;;4993234;28;20019;-75
2021/10/31 10:49:16;;;;;;;67.50;38.17;;;;;;;;;;4992744;28;20073;-74
2021/10/31 10:51:42;;;;;;;70.35;36.28;;;;;;;;;;4992999;28;20496;-74
2021/10/31 10:54:12;;;;;;;65.78;35.08;;;;;;;;;;4993440;28;20381;-74
2021/10/31 10:57:08;;;;;;;62.47;37.08;;;;;;;;;;4992717;28;20145;-74
2021/10/31 10:59:37;;;;;;;64.03;38.15;;;;;;;;;;4991385;28;20497;-73
2021/10/31 11:02:13;;;;;;;63.85;37.17;;;;;;;;;;5007479;28;20355;-75
2021/10/31 11:04:40;;;;;;;65.80;37.17;;;;;;;;;;4992891;28;20062;-74
2021/10/31 11:07:13;;;;;;;63.33;36.58;;;;;;;;;;4990972;28;20478;-73
2021/10/31 11:09:47;;;;;;;65.18;35.75;;;;;;;;;;4990792;28;20588;-74
2021/10/31 11:12:32;;;;;;;65.28;37.72;;;;;;;;;;5007617;28;20165;-74
2021/10/31 11:15:02;;;;;;;61.85;33.15;;;;;;;;;;4992706;28;20233;-75
2021/10/31 11:17:28;;;;;;;63.17;36.65;;;;;;;;;;5007059;28;20053;-74
2021/10/31 11:19:55;;;;;;;57.63;32.78;;;;;;;;;;5007530;28;20478;-73
2021/10/31 11:22:22;;;;;;;65.53;35.90;;;;;;;;;;4990808;28;20046;-74
2021/10/31 11:24:49;;;;;;;58.83;34.15;;;;;;;;;;5007172;28;20037;-75
2021/10/31 11:27:19;;;;;;;59.83;35.22;;;;;;;;;;4992175;28;20078;-74
2021/10/31 11:29:46;;;;;;;59.00;35.10;;;;;;;;;;4990749;28;20022;-73
2021/10/31 11:32:13;;;;;;;67.00;36.22;;;;;;;;;;5007187;28;20489;-75
2021/10/31 11:35:02;;;;;;;62.10;36.63;;;;;;;;;;4990416;28;20070;-75
2021/10/31 11:37:34;;;;;;;59.13;32.35;;;;;;;;;;4991178;28;20117;-74
2021/10/31 11:40:03;;;;;;;63.92;33.50;;;;;;;;;;5007097;28;20034;-74
2021/10/31 11:42:35;;;;;;;56.70;32.67;;;;;;;;;;4990494;28;20030;-74
2021/10/31 11:45:03;;;;;;;61.78;33.05;;;;;;;;;;4991818;28;20501;-74
2021/10/31 11:47:30;;;;;;;63.88;33.78;;;;;;;;;;4991858;28;20482;-74
2021/10/31 11:50:20;;;;;;;58.90;32.25;;;;;;;;;;4990590;28;20030;-75
2021/10/31 11:52:49;;;;;;;57.70;32.45;;;;;;;;;;4990047;28;20035;-74
2021/10/31 11:55:46;;;;;;;52.20;30.27;;;;;;;;;;5006684;28;20129;-73
2021/10/31 11:58:40;;;;;;;49.53;30.70;;;;;;;;;;4989689;28;20125;-74
2021/10/31 12:01:14;;;;;;;54.88;30.23;;;;;;;;;;4991264;28;20331;-74
2021/10/31 12:03:43;;;;;;;51.97;29.70;;;;;;;;;;5006027;28;20392;-75
2021/10/31 12:06:15;;;;;;;47.42;28.48;;;;;;;;;;4991572;28;20034;-74
2021/10/31 12:08:45;;;;;;;48.00;28.48;;;;;;;;;;5006243;28;20619;-75
2021/10/31 12:11:10;;;;;;;47.60;27.13;;;;;;;;;;4989847;28;20037;-74
2021/10/31 12:13:46;;;;;;;49.65;27.30;;;;;;;;;;4990945;28;20026;-74
2021/10/31 12:16:16;;;;;;;46.53;28.05;;;;;;;;;;4989666;28;20026;-75
2021/10/31 12:19:10;;;;;;;47.10;27.40;;;;;;;;;;5005696;28;20038;-74
2021/10/31 12:21:40;;;;;;;43.08;26.83;;;;;;;;;;4988726;28;20030;-74
2021/10/31 12:24:17;;;;;;;49.67;26.92;;;;;;;;;;4989491;28;20080;-74
2021/10/31 12:26:54;;;;;;;44.25;26.50;;;;;;;;;;4989465;28;20029;-73
2021/10/31 12:29:22;;;;;;;44.88;25.55;;;;;;;;;;5005908;28;20092;-74
2021/10/31 12:31:50;;;;;;;44.40;27.30;;;;;;;;;;4990744;28;20069;-74
2021/10/31 12:34:20;;;;;;;42.97;25.20;;;;;;;;;;4990573;28;20046;-75
2021/10/31 12:36:51;;;;;;;44.17;24.45;;;;;;;;;;4990968;28;20113;-75
2021/10/31 12:39:26;;;;;;;41.05;23.35;;;;;;;;;;4989206;28;20057;-74
2021/10/31 12:42:17;;;;;;;36.55;22.80;;;;;;;;;;5005668;28;20533;-74
2021/10/31 12:44:48;;;;;;;39.85;23.15;;;;;;;;;;5005403;28;20038;-75
2021/10/31 12:47:24;;;;;;;45.88;22.88;;;;;;;;;;5004970;28;20486;-74
2021/10/31 12:49:51;;;;;;;37.50;23.23;;;;;;;;;;4989351;28;20034;-74
2021/10/31 12:52:26;;;;;;;35.58;20.50;;;;;;;;;;4990443;28;20085;-74
2021/10/31 12:55:05;;;;;;;34.30;21.20;;;;;;;;;;4990951;28;20026;-74
2021/10/31 12:57:31;;;;;;;38.20;21.77;;;;;;;;;;4990441;28;20466;-74
2021/10/31 13:00:03;;;;;;;35.78;21.13;;;;;;;;;;4990608;28;20101;-75
2021/10/31 13:02:30;;;;;;;35.75;21.27;;;;;;;;;;4989913;28;20022;-73
2021/10/31 13:05:01;;;;;;;38.65;21.33;;;;;;;;;;4988963;28;20049;-73
2021/10/31 13:07:42;;;;;;;36.78;21.67;;;;;;;;;;4990293;28;20026;-75
2021/10/31 13:10:13;;;;;;;37.10;22.75;;;;;;;;;;5005663;28;20041;-74
2021/10/31 13:12:39;;;;;;;33.80;20.35;;;;;;;;;;4988929;28;20235;-75
2021/10/31 13:15:09;;;;;;;34.97;20.65;;;;;;;;;;4988900;28;20116;-74
2021/10/31 13:17:38;;;;;;;37.33;21.70;;;;;;;;;;4989433;28;20061;-75
2021/10/31 13:20:10;;;;;;;34.40;20.17;;;;;;;;;;4990213;28;20052;-75
2021/10/31 13:22:36;;;;;;;36.08;21.80;;;;;;;;;;4988755;28;20049;-74
2021/10/31 13:25:02;;;;;;;39.33;21.17;;;;;;;;;;5005356;28;20541;-74
2021/10/31 13:27:27;;;;;;;35.38;20.02;;;;;;;;;;4988778;28;20367;-74
2021/10/31 13:29:56;;;;;;;34.13;20.40;;;;;;;;;;4988854;28;20080;-74
2021/10/31 13:32:29;;;;;;;34.42;20.20;;;;;;;;;;4989923;28;20019;-73
2021/10/31 13:35:00;;;;;;;32.83;20.55;;;;;;;;;;4992651;28;20042;-76
2021/10/31 13:37:25;;;;;;;36.50;20.85;;;;;;;;;;4994144;28;20068;-75
2021/10/31 13:40:01;;;;;;;43.97;22.38;;;;;;;;;;4994263;28;20034;-75
2021/10/31 13:42:30;;;;;;;36.10;20.13;;;;;;;;;;4992677;28;20042;-73
2021/10/31 13:45:02;;;;;;;35.80;19.63;;;;;;;;;;5008926;28;20516;-74
2021/10/31 13:50:01;;;;;;;35.92;19.88;;;;;;;;;;5008705;28;20057;-74
2021/10/31 13:52:27;;;;;;;37.10;20.40;;;;;;;;;;4992333;28;20026;-74
2021/10/31 13:54:55;;;;;;;34.88;21.13;;;;;;;;;;5008822;28;20049;-75
2021/10/31 13:57:23;;;;;;;48.50;26.38;;;;;;;;;;5008798;28;20089;-74
2021/10/31 13:59:51;;;;;;;39.55;19.77;;;;;;;;;;4993958;28;20036;-75
2021/10/31 14:02:19;;;;;;;35.63;19.65;;;;;;;;;;4993415;28;20023;-75
2021/10/31 14:04:45;;;;;;;33.40;20.70;;;;;;;;;;5008403;28;20413;-75
2021/10/31 14:07:13;;;;;;;35.22;20.10;;;;;;;;;;4992265;28;20034;-75
2021/10/31 14:09:46;;;;;;;39.00;20.98;;;;;;;;;;4992270;28;20145;-75
2021/10/31 14:12:21;;;;;;;34.22;20.88;;;;;;;;;;4992201;28;20023;-75
2021/10/31 14:14:53;;;;;;;32.70;20.38;;;;;;;;;;5008179;28;20027;-74
2021/10/31 14:17:24;;;;;;;34.97;19.13;;;;;;;;;;4993582;28;20022;-74
2021/10/31 14:19:52;;;;;;;36.37;20.00;;;;;;;;;;4993089;28;20053;-74
2021/10/31 14:22:26;;;;;;;32.28;20.00;;;;;;;;;;4991721;28;20027;-73
2021/10/31 14:25:01;;;;;;;39.78;21.92;;;;;;;;;;4992858;28;20113;-74
2021/10/31 14:27:29;;;;;;;31.38;19.33;;;;;;;;;;5008959;28;20026;-75
2021/10/31 14:30:16;;;;;;;37.47;20.35;;;;;;;;;;4992012;28;20116;-73
2021/10/31 14:33:00;;;;;;;34.78;19.88;;;;;;;;;;5007261;28;20029;-75